Time;durP1;ratioP1;P1;durP2;ratioP2;P2;SDS_P1;SDS_P2;PMS_P1;PMS_P2;Temp;Humidity;BMP_temperature;BMP_pressure;BME280_temperature;BME280_humidity;BME280_pressure;Samples;Min_cycle;Max_cycle;Signal;HPM_P1;HPM_P2
2022/04/28 00:00:19;;;;;;;10.87;4.57;;;;;;;-142.75;100.00;79185.28;5029015;28;19921;-67
2022/04/28 00:02:46;;;;;;;6.43;3.97;;;;;;;-142.75;100.00;79175.44;5029350;28;20036;-67
2022/04/28 00:05:12;;;;;;;10.77;5.70;;;;;;;-142.75;100.00;79189.22;5028206;28;20486;-67
2022/04/28 00:07:38;;;;;;;9.95;4.93;;;;;;;-142.75;100.00;79193.16;5029312;28;20044;-67
2022/04/28 00:10:06;;;;;;;11.27;5.20;;;;;;;-142.75;100.00;79195.13;5027664;28;20363;-67
2022/04/28 00:12:32;;;;;;;9.57;5.07;;;;;;;-142.75;100.00;79193.16;5027882;28;20108;-67
2022/04/28 00:14:57;;;;;;;15.50;6.13;;;;;;;-142.75;100.00;79197.09;5027833;28;20594;-67
2022/04/28 00:17:23;;;;;;;13.70;6.45;;;;;;;-142.75;100.00;79197.09;5028043;28;20021;-67
2022/04/28 00:19:48;;;;;;;15.32;7.25;;;;;;;-142.75;100.00;79203.00;5028675;28;20491;-67
2022/04/28 00:22:13;;;;;;;13.30;6.25;;;;;;;-142.75;100.00;79212.84;5028920;28;20048;-67
2022/04/28 00:24:39;;;;;;;10.63;5.93;;;;;;;-142.75;100.00;79208.91;5029238;28;20490;-66
2022/04/28 00:27:04;;;;;;;12.57;6.30;;;;;;;-142.75;100.00;79203.00;5029239;28;20032;-67
2022/04/28 00:29:30;;;;;;;8.35;4.95;;;;;;;-142.75;100.00;79206.94;5027575;28;20029;-66
2022/04/28 00:31:55;;;;;;;13.70;6.20;;;;;;;-142.75;100.00;79201.03;5028556;28;20029;-67
2022/04/28 00:34:20;;;;;;;14.07;6.15;;;;;;;-142.75;100.00;79199.06;5028435;28;20029;-67
2022/04/28 00:36:45;;;;;;;10.90;6.18;;;;;;;-142.75;100.00;79197.09;5028883;28;20104;-67
2022/04/28 00:39:11;;;;;;;8.55;5.70;;;;;;;-142.75;100.00;79195.13;5028841;28;20029;-67
2022/04/28 00:41:36;;;;;;;9.63;5.38;;;;;;;-142.75;100.00;79197.09;5028520;28;20091;-67
2022/04/28 00:44:01;;;;;;;15.63;5.78;;;;;;;-142.75;100.00;79201.03;5028699;28;20572;-67
2022/04/28 00:46:27;;;;;;;10.43;6.22;;;;;;;-142.75;100.00;79199.06;5028656;28;20060;-67
2022/04/28 00:51:37;;;;;;;12.27;6.30;;;;;;;-142.75;100.00;79185.28;5028393;28;20414;-66
2022/04/28 00:54:04;;;;;;;11.80;5.47;;;;;;;-142.75;100.00;79185.28;5028827;28;20071;-67
2022/04/28 00:56:30;;;;;;;13.83;5.97;;;;;;;-142.75;100.00;79179.38;5028791;28;20060;-66
2022/04/28 00:58:58;;;;;;;12.80;6.20;;;;;;;-142.75;100.00;79185.28;5028558;28;20063;-67
2022/04/28 01:01:23;;;;;;;13.63;6.90;;;;;;;-142.75;100.00;79185.28;5027078;28;20386;-66
2022/04/28 01:03:49;;;;;;;13.80;5.72;;;;;;;-142.75;100.00;79193.16;5027121;28;20030;-67
2022/04/28 01:06:15;;;;;;;8.60;5.20;;;;;;;-142.75;100.00;79193.16;5027290;28;20025;-67
2022/04/28 01:08:41;;;;;;;11.33;6.13;;;;;;;-142.75;100.00;79189.22;5027854;28;20483;-66
2022/04/28 01:11:07;;;;;;;12.23;6.18;;;;;;;-142.75;100.00;79191.19;5027940;28;20032;-67
2022/04/28 01:13:33;;;;;;;7.60;4.57;;;;;;;-142.75;100.00;79195.13;5028368;28;20596;-66
2022/04/28 01:15:58;;;;;;;16.80;6.30;;;;;;;-142.75;100.00;79197.09;5028382;28;20116;-66
2022/04/28 01:18:24;;;;;;;9.80;5.80;;;;;;;-142.75;100.00;79195.13;5032900;28;20025;-67
2022/04/28 01:20:49;;;;;;;12.40;5.82;;;;;;;-142.75;100.00;79208.91;5030837;28;20393;-67
2022/04/28 01:23:14;;;;;;;10.20;6.45;;;;;;;-142.75;100.00;79210.88;5032184;28;20029;-67
2022/04/28 01:25:40;;;;;;;12.95;6.40;;;;;;;-142.75;100.00;79214.81;5032426;28;20033;-66
2022/04/28 01:28:05;;;;;;;14.18;6.90;;;;;;;-142.75;100.00;79220.75;5030866;28;20025;-67
2022/04/28 01:30:30;;;;;;;12.15;5.30;;;;;;;-142.75;100.00;79216.78;5031860;28;20025;-66
2022/04/28 01:32:57;;;;;;;12.77;6.45;;;;;;;-142.75;100.00;79226.66;5032094;28;20469;-67
2022/04/28 01:35:24;;;;;;;10.70;6.27;;;;;;;-142.75;100.00;79240.44;5030516;28;20025;-67
2022/04/28 01:37:49;;;;;;;13.13;6.10;;;;;;;-142.75;100.00;79240.44;5031923;28;20025;-67
2022/04/28 01:40:16;;;;;;;15.63;5.57;;;;;;;-142.75;100.00;79260.13;5031736;28;20036;-67
2022/04/28 01:42:42;;;;;;;10.83;6.27;;;;;;;-142.75;100.00;79244.38;5031918;28;20036;-66
2022/04/28 01:45:09;;;;;;;10.20;5.90;;;;;;;-142.75;100.00;79236.50;5028220;28;20475;-67
2022/04/28 01:47:34;;;;;;;12.47;6.97;;;;;;;-142.75;100.00;79232.56;5032170;28;20036;-67
2022/04/28 01:50:00;;;;;;;11.80;6.68;;;;;;;-142.75;100.00;79228.63;5031798;28;20029;-66
2022/04/28 01:55:09;;;;;;;13.40;6.47;;;;;;;-142.75;100.00;79236.50;5031948;28;20036;-67
2022/04/28 01:57:34;;;;;;;13.98;6.82;;;;;;;-142.75;100.00;79234.53;5030373;28;20026;-67
2022/04/28 02:00:00;;;;;;;14.27;6.90;;;;;;;-142.75;100.00;79226.66;5031350;28;20060;-66
2022/04/28 02:02:26;;;;;;;10.45;5.82;;;;;;;-142.75;100.00;79226.66;5031547;28;20272;-67
2022/04/28 02:04:58;;;;;;;13.68;6.93;;;;;;;-142.75;100.00;79230.59;5031330;28;20475;-67
2022/04/28 02:07:24;;;;;;;13.17;7.07;;;;;;;-142.75;100.00;79248.31;5031542;28;20026;-67
2022/04/28 02:09:49;;;;;;;12.30;6.78;;;;;;;-142.75;100.00;79242.41;5029873;28;20051;-67
2022/04/28 02:12:14;;;;;;;17.10;7.10;;;;;;;-142.75;100.00;79248.31;5031302;28;20041;-67
2022/04/28 02:14:41;;;;;;;11.65;6.35;;;;;;;-142.75;100.00;79246.34;5031283;28;20045;-67
2022/04/28 02:17:06;;;;;;;;;;;;;;;-142.75;100.00;79260.13;5030512;28;20021;-67
2022/04/28 02:19:32;;;;;;;11.20;6.27;;;;;;;-142.75;100.00;79268.00;5031444;28;20371;-67
2022/04/28 02:21:57;;;;;;;12.57;6.90;;;;;;;-142.75;100.00;79283.78;5030045;28;20376;-66
2022/04/28 02:24:23;;;;;;;13.85;7.40;;;;;;;-142.75;100.00;79285.75;5030160;28;20036;-66
2022/04/28 02:26:48;;;;;;;14.77;6.57;;;;;;;-142.75;100.00;79289.69;5030696;28;20071;-67
2022/04/28 02:29:14;;;;;;;16.33;7.53;;;;;;;-142.75;100.00;79291.66;5030677;28;20529;-67
2022/04/28 02:31:39;;;;;;;10.45;6.13;;;;;;;-142.75;100.00;79289.69;5029370;28;20033;-67
2022/04/28 02:36:35;;;;;;;15.70;6.93;;;;;;;-142.75;100.00;79279.84;5027900;28;20057;-65
2022/04/28 02:39:00;;;;;;;11.90;6.60;;;;;;;-142.75;100.00;79279.84;5029968;28;20025;-64
2022/04/28 02:41:26;;;;;;;10.97;6.23;;;;;;;-142.75;100.00;79271.94;5032775;28;20264;-64
2022/04/28 02:43:51;;;;;;;11.10;6.82;;;;;;;-142.75;100.00;79281.81;5050812;28;20393;-65
2022/04/28 02:46:18;;;;;;;13.20;6.28;;;;;;;-142.75;100.00;79295.59;5050441;28;20047;-65
2022/04/28 02:48:44;;;;;;;11.50;6.80;;;;;;;-142.75;100.00;79291.66;5049603;28;20035;-64
2022/04/28 02:51:09;;;;;;;12.57;7.03;;;;;;;-142.75;100.00;79287.72;5050236;28;20032;-64
2022/04/28 02:53:35;;;;;;;13.15;6.25;;;;;;;-142.75;100.00;79305.44;5050716;28;20024;-64
2022/04/28 02:56:00;;;;;;;14.95;6.55;;;;;;;-142.75;100.00;79311.34;5046613;28;21000;-63
2022/04/28 02:58:26;;;;;;;11.68;6.82;;;;;;;-142.75;100.00;79305.44;5030458;28;20037;-64
2022/04/28 03:00:51;;;;;;;12.63;6.63;;;;;;;-142.75;100.00;79311.34;5031607;28;20562;-64
2022/04/28 03:03:17;;;;;;;9.30;6.55;;;;;;;-142.75;100.00;79303.47;5030424;28;20031;-64
2022/04/28 03:11:09;;;;;;;11.23;6.23;;;;;;;-142.75;100.00;79307.41;5033782;28;20410;-65
2022/04/28 03:13:36;;;;;;;10.45;6.68;;;;;;;-142.75;100.00;79307.41;5035367;28;20041;-64
2022/04/28 03:16:01;;;;;;;13.07;6.65;;;;;;;-142.75;100.00;79311.34;5047191;28;20536;-64
2022/04/28 03:18:27;;;;;;;10.05;5.47;;;;;;;-142.75;100.00;79309.38;5050318;28;20085;-64
2022/04/28 03:20:53;;;;;;;13.35;6.65;;;;;;;-142.75;100.00;79301.50;5048569;28;20017;-64
2022/04/28 03:23:19;;;;;;;14.07;7.25;;;;;;;-142.75;100.00;79311.34;5032437;28;20079;-65
2022/04/28 03:25:44;;;;;;;13.65;6.60;;;;;;;-142.75;100.00;79311.34;5039904;28;20431;-67
2022/04/28 03:28:10;;;;;;;12.27;5.32;;;;;;;-142.75;100.00;79329.06;5038517;28;20033;-66
2022/04/28 03:30:36;;;;;;;9.43;6.18;;;;;;;-142.75;100.00;79329.06;5039637;28;20033;-66
2022/04/28 03:33:01;;;;;;;10.05;6.10;;;;;;;-142.75;100.00;79331.03;5039942;28;20450;-66
2022/04/28 03:35:27;;;;;;;9.18;5.13;;;;;;;-142.75;100.00;79344.84;5044556;28;20120;-66
2022/04/28 03:37:52;;;;;;;14.48;5.82;;;;;;;-142.75;100.00;79350.75;5029921;28;20025;-67
2022/04/28 03:40:17;;;;;;;11.40;5.45;;;;;;;-142.75;100.00;79358.63;5036267;28;20063;-67
2022/04/28 03:42:44;;;;;;;10.57;5.80;;;;;;;-142.75;100.00;79368.47;5039487;28;20104;-67
2022/04/28 03:45:11;;;;;;;11.10;4.80;;;;;;;-142.75;100.00;79382.25;5031421;28;20028;-66
2022/04/28 03:47:36;;;;;;;10.33;5.67;;;;;;;-142.75;100.00;79380.28;5038821;28;20025;-68
2022/04/28 03:50:06;;;;;;;10.75;5.50;;;;;;;-142.75;100.00;79380.28;5045151;28;20029;-66
2022/04/28 03:52:31;;;;;;;9.93;5.57;;;;;;;-142.75;100.00;79382.25;5033273;28;20029;-67
2022/04/28 03:54:57;;;;;;;8.35;4.63;;;;;;;-142.75;100.00;79374.38;5036930;28;20474;-66
2022/04/28 03:57:22;;;;;;;9.13;5.10;;;;;;;-142.75;100.00;79374.38;5045383;28;20029;-66
2022/04/28 03:59:47;;;;;;;11.52;5.70;;;;;;;-142.75;100.00;79388.16;5040447;28;20025;-66
2022/04/28 04:02:13;;;;;;;12.02;5.20;;;;;;;-142.75;100.00;79392.13;5040689;28;20020;-66
2022/04/28 04:04:39;;;;;;;11.57;5.80;;;;;;;-142.75;100.00;79392.13;5035935;28;20033;-66
2022/04/28 04:07:05;;;;;;;12.37;5.43;;;;;;;-142.75;100.00;79380.28;5042347;28;20025;-66
2022/04/28 04:09:31;;;;;;;10.93;5.70;;;;;;;-142.75;100.00;79374.38;5043632;28;20043;-66
2022/04/28 04:11:56;;;;;;;13.68;5.97;;;;;;;-142.75;100.00;79362.56;5033651;28;20454;-67
2022/04/28 04:14:21;;;;;;;15.02;5.80;;;;;;;-142.75;100.00;79356.66;5030921;28;20474;-66
2022/04/28 04:16:46;;;;;;;13.13;6.13;;;;;;;-142.75;100.00;79342.88;5045019;28;20021;-67
2022/04/28 04:19:12;;;;;;;10.50;5.47;;;;;;;-142.75;100.00;79346.81;5033890;28;20279;-66
2022/04/28 04:21:37;;;;;;;12.65;6.53;;;;;;;-142.75;100.00;79342.88;5027820;28;20018;-66
2022/04/28 04:24:02;;;;;;;13.52;6.75;;;;;;;-142.75;100.00;79336.94;5040780;28;20037;-66
2022/04/28 04:26:28;;;;;;;11.02;6.38;;;;;;;-142.75;100.00;79335.00;5015981;28;20474;-66
2022/04/28 04:28:53;;;;;;;12.07;6.13;;;;;;;-142.75;100.00;79335.00;5030831;28;20027;-66
2022/04/28 04:34:02;;;;;;;10.37;5.83;;;;;;;-142.75;100.00;79348.78;5044231;28;20266;-66
2022/04/28 04:36:28;;;;;;;11.77;5.80;;;;;;;-142.75;100.00;79344.84;5049145;28;20021;-66
2022/04/28 04:38:53;;;;;;;15.80;6.05;;;;;;;-142.75;100.00;79354.69;5034271;28;20108;-66
2022/04/28 04:41:18;;;;;;;10.77;5.30;;;;;;;-142.75;100.00;79352.72;5048923;28;20025;-67
2022/04/28 04:43:44;;;;;;;10.77;6.07;;;;;;;-142.75;100.00;79362.56;5039061;28;20059;-65
2022/04/28 04:46:09;;;;;;;8.18;5.28;;;;;;;-142.75;100.00;79362.56;5048606;28;20017;-66
2022/04/28 04:48:34;;;;;;;12.23;5.82;;;;;;;-142.75;100.00;79364.53;5049269;28;20044;-66
2022/04/28 04:50:59;;;;;;;11.13;6.13;;;;;;;-142.75;100.00;79362.56;5046051;28;20057;-65
2022/04/28 04:53:25;;;;;;;11.98;5.60;;;;;;;-142.75;100.00;79374.38;5033434;28;20034;-67
2022/04/28 04:55:50;;;;;;;10.35;5.85;;;;;;;-142.75;100.00;79370.44;5044220;28;20032;-67
2022/04/28 04:58:15;;;;;;;12.57;5.55;;;;;;;-142.75;100.00;79358.63;5031577;28;20021;-66
2022/04/28 05:00:41;;;;;;;12.30;5.67;;;;;;;-142.75;100.00;79340.91;5032618;28;20109;-66
2022/04/28 05:03:06;;;;;;;12.90;6.03;;;;;;;-142.75;100.00;79329.06;5032845;28;20279;-66
2022/04/28 05:05:31;;;;;;;11.83;6.60;;;;;;;-142.75;100.00;79323.16;5032675;28;20021;-66
2022/04/28 05:07:57;;;;;;;12.90;5.77;;;;;;;-142.75;100.00;79327.09;5033564;28;20272;-66
2022/04/28 05:10:22;;;;;;;16.67;6.43;;;;;;;-142.75;100.00;79311.34;5032270;28;20650;-67
2022/04/28 05:12:48;;;;;;;10.70;6.05;;;;;;;-142.75;100.00;79307.41;5033140;28;20467;-66
2022/04/28 05:15:14;;;;;;;10.45;5.78;;;;;;;-142.75;100.00;79287.72;5033164;28;20018;-67
2022/04/28 05:17:39;;;;;;;15.13;5.93;;;;;;;-142.75;100.00;79279.84;5034476;28;20509;-67
2022/04/28 05:20:06;;;;;;;15.68;6.70;;;;;;;-142.75;100.00;79268.00;5032823;28;20063;-66
2022/04/28 05:22:32;;;;;;;13.20;6.80;;;;;;;-142.75;100.00;79262.09;5034380;28;20101;-67
2022/04/28 05:24:58;;;;;;;14.00;6.35;;;;;;;-142.75;100.00;79262.09;5034099;28;20559;-67
2022/04/28 05:27:23;;;;;;;13.90;5.60;;;;;;;-142.75;100.00;79260.13;5051768;28;20032;-65
2022/04/28 05:29:49;;;;;;;9.68;5.55;;;;;;;-142.75;100.00;79248.31;5053748;28;20051;-67
2022/04/28 05:32:14;;;;;;;11.15;5.63;;;;;;;-142.75;100.00;79244.38;5054181;28;20475;-67
2022/04/28 05:34:39;;;;;;;11.98;6.13;;;;;;;-142.75;100.00;79242.41;5053933;28;20037;-67
2022/04/28 05:37:06;;;;;;;11.50;6.22;;;;;;;-142.75;100.00;79226.66;5053985;28;20024;-67
2022/04/28 05:39:32;;;;;;;11.77;6.23;;;;;;;-142.75;100.00;79220.75;5053577;28;20121;-65
2022/04/28 05:41:57;;;;;;;11.13;6.43;;;;;;;-142.75;100.00;79191.19;5053745;28;20041;-67
2022/04/28 05:47:08;;;;;;;12.03;6.67;;;;;;;-142.75;100.00;79165.59;5049406;28;20493;-66
2022/04/28 05:49:33;;;;;;;16.73;5.80;;;;;;;-142.75;100.00;79167.56;5052314;28;20068;-66
2022/04/28 05:51:59;;;;;;;14.48;5.97;;;;;;;-142.75;100.00;79161.66;5053596;28;20060;-66
2022/04/28 05:54:25;;;;;;;12.02;6.53;;;;;;;-142.75;100.00;79141.94;5053534;28;20039;-67
2022/04/28 05:56:51;;;;;;;10.95;6.10;;;;;;;-142.75;100.00;79138.00;5051905;28;20037;-66
2022/04/28 05:59:17;;;;;;;12.37;6.00;;;;;;;-142.75;100.00;79120.28;5052466;28;20029;-67
2022/04/28 06:01:43;;;;;;;9.77;5.50;;;;;;;-142.75;100.00;79102.56;5052335;28;20043;-66
2022/04/28 06:04:08;;;;;;;13.05;5.22;;;;;;;-142.75;100.00;79086.78;5052232;28;20057;-66
2022/04/28 06:06:34;;;;;;;13.40;5.82;;;;;;;-142.75;100.00;79061.19;5051962;28;20065;-66
2022/04/28 06:09:00;;;;;;;10.02;5.45;;;;;;;-142.75;100.00;79043.47;5052430;28;20091;-66
2022/04/28 06:11:26;;;;;;;13.13;5.60;;;;;;;-142.75;100.00;79041.50;5050526;28;20075;-66
2022/04/28 06:13:51;;;;;;;10.43;5.60;;;;;;;-142.75;100.00;79025.72;5052445;28;20027;-66
2022/04/28 06:16:16;;;;;;;12.87;5.40;;;;;;;-142.75;100.00;79009.97;5052250;28;20414;-66
2022/04/28 06:18:41;;;;;;;11.27;6.10;;;;;;;-142.75;100.00;78992.25;5050834;28;20271;-66
2022/04/28 06:21:07;;;;;;;11.40;5.45;;;;;;;-142.75;100.00;78978.47;5050708;28;20764;-66
2022/04/28 06:23:32;;;;;;;10.02;5.75;;;;;;;-142.75;100.00;78964.69;5052364;28;20596;-66
2022/04/28 06:25:57;;;;;;;11.43;5.20;;;;;;;-142.75;100.00;78933.16;5051438;28;20108;-65
2022/04/28 06:28:23;;;;;;;10.32;5.53;;;;;;;-142.75;100.00;78909.53;5031470;28;20389;-66
2022/04/28 06:30:48;;;;;;;14.80;5.50;;;;;;;-142.75;100.00;78909.53;5029804;28;20033;-65
2022/04/28 06:33:13;;;;;;;14.18;6.85;;;;;;;-142.75;100.00;78883.91;5030183;28;20025;-66
2022/04/28 06:35:39;;;;;;;12.90;4.93;;;;;;;-142.75;100.00;78874.06;5031253;28;20051;-65
2022/04/28 06:38:04;;;;;;;9.15;4.80;;;;;;;-142.75;100.00;78840.59;5031256;28;20025;-66
2022/04/28 06:40:30;;;;;;;9.98;5.00;;;;;;;-142.75;100.00;78842.56;5030888;28;20029;-65
2022/04/28 06:42:56;;;;;;;11.45;5.13;;;;;;;-142.75;100.00;78809.06;5031245;28;20037;-65
2022/04/28 06:45:22;;;;;;;10.23;5.20;;;;;;;-142.75;100.00;78799.22;5031244;28;20455;-66
2022/04/28 06:47:47;;;;;;;11.13;5.18;;;;;;;-142.75;100.00;78757.88;5031459;28;20580;-65
2022/04/28 06:50:13;;;;;;;12.90;4.70;;;;;;;-142.75;100.00;78750.00;5029553;28;20406;-66
2022/04/28 06:52:39;;;;;;;10.73;5.07;;;;;;;-142.75;100.00;78738.16;5030892;28;20025;-66
2022/04/28 06:55:06;;;;;;;6.88;4.20;;;;;;;-142.75;100.00;78730.28;5039368;28;20025;-66
2022/04/28 06:57:32;;;;;;;10.23;4.30;;;;;;;-142.75;100.00;78732.25;5050761;28;20029;-66
2022/04/28 06:59:57;;;;;;;10.75;4.70;;;;;;;-142.75;100.00;78700.75;5050675;28;20032;-65
2022/04/28 07:02:22;;;;;;;10.88;3.85;;;;;;;-142.75;100.00;78653.47;5050804;28;20674;-66
2022/04/28 07:04:48;;;;;;;7.03;4.40;;;;;;;-142.75;100.00;78667.25;5050554;28;20036;-66
2022/04/28 07:07:14;;;;;;;17.67;3.97;;;;;;;-142.75;100.00;78625.91;5049034;28;20059;-66
2022/04/28 07:09:39;;;;;;;;;;;;;;;-142.75;100.00;78645.59;5050711;28;20029;-65
2022/04/28 07:12:05;;;;;;;13.27;4.00;;;;;;;-142.75;100.00;78631.81;5050182;28;20508;-66
2022/04/28 07:14:30;;;;;;;10.15;4.35;;;;;;;-142.75;100.00;78604.25;5049928;28;20017;-66
2022/04/28 07:16:55;;;;;;;6.63;3.65;;;;;;;-142.75;100.00;78594.41;5049066;28;20409;-66
2022/04/28 07:19:21;;;;;;;11.05;3.75;;;;;;;-142.75;100.00;78604.25;5050476;28;20402;-65
2022/04/28 07:21:46;;;;;;;12.43;3.97;;;;;;;-142.75;100.00;78608.19;5050173;28;20108;-65
2022/04/28 07:24:11;;;;;;;7.28;4.13;;;;;;;-142.75;100.00;78570.75;5050435;28;20486;-65
2022/04/28 07:26:37;;;;;;;10.20;3.70;;;;;;;-142.75;100.00;78531.38;5050204;28;20032;-64
2022/04/28 07:29:05;;;;;;;8.63;3.60;;;;;;;-142.75;100.00;78527.44;5050230;28;20036;-66
2022/04/28 07:31:30;;;;;;;9.13;3.50;;;;;;;-142.75;100.00;78531.38;5049668;28;20125;-66
2022/04/28 07:33:56;;;;;;;12.63;4.07;;;;;;;-142.75;100.00;78499.88;5042476;28;20108;-67
2022/04/28 07:36:21;;;;;;;8.88;3.58;;;;;;;-142.75;100.00;78468.34;5029059;28;20053;-66
2022/04/28 07:38:47;;;;;;;14.82;3.55;;;;;;;-142.75;100.00;78438.81;5029698;28;20026;-66
2022/04/28 07:41:13;;;;;;;7.32;3.67;;;;;;;-142.75;100.00;78425.03;5030039;28;20101;-66
2022/04/28 07:43:38;;;;;;;7.72;3.03;;;;;;;-142.75;100.00;78434.88;5029845;28;20021;-66
2022/04/28 07:46:03;;;;;;;9.73;3.08;;;;;;;-142.75;100.00;78425.03;5031700;28;20454;-66
2022/04/28 07:48:29;;;;;;;11.13;2.97;;;;;;;-142.75;100.00;78405.34;5029508;28;20036;-67
2022/04/28 07:50:55;;;;;;;5.95;2.72;;;;;;;-142.75;100.00;78381.69;5040127;28;20131;-67
2022/04/28 07:53:21;;;;;;;11.50;2.72;;;;;;;-142.75;100.00;78356.09;5050272;28;20402;-66
2022/04/28 07:56:10;;;;;;;11.07;2.80;;;;;;;-142.75;100.00;78330.50;5049340;28;20032;-65
2022/04/28 07:58:32;;;;;;;7.55;2.63;;;;;;;-142.75;100.00;78354.13;5046693;28;20030;-66
2022/04/28 08:00:58;;;;;;;7.35;2.45;;;;;;;-142.75;100.00;78297.00;5030126;28;20090;-67
2022/04/28 08:03:23;;;;;;;9.55;2.95;;;;;;;-142.75;100.00;78293.06;5030303;28;20021;-66
2022/04/28 08:05:49;;;;;;;10.85;3.20;;;;;;;-142.75;100.00;78279.28;5030324;28;20045;-66
2022/04/28 08:08:14;;;;;;;;;;;;;;;-142.75;100.00;78310.81;5030424;28;20029;-65
2022/04/28 08:10:39;;;;;;;9.68;2.20;;;;;;;-142.75;100.00;78273.38;5029771;28;19913;-66
2022/04/28 08:13:05;;;;;;;;;;;;;;;-142.75;100.00;78277.31;5030561;28;20021;-67
2022/04/28 08:15:30;;;;;;;11.38;2.72;;;;;;;-142.75;100.00;78267.47;5030135;28;19917;-66
2022/04/28 08:17:55;;;;;;;;;;;;;;;-142.75;100.00;78243.84;5030496;28;20076;-66
2022/04/28 08:20:20;;;;;;;12.60;2.58;;;;;;;-142.75;100.00;78235.97;5029989;28;19952;-66
2022/04/28 08:22:46;;;;;;;7.95;2.65;;;;;;;-142.75;100.00;78245.81;5030044;28;20033;-65
2022/04/28 08:25:11;;;;;;;8.02;2.78;;;;;;;-142.75;100.00;78232.03;5030739;28;20033;-66
2022/04/28 08:27:36;;;;;;;8.60;2.83;;;;;;;-142.75;100.00;78204.47;5049833;28;20526;-65
2022/04/28 08:30:02;;;;;;;7.32;2.97;;;;;;;-142.75;100.00;78216.28;5049301;28;20025;-66
2022/04/28 08:32:27;;;;;;;9.00;2.80;;;;;;;-142.75;100.00;78212.34;5048349;28;20024;-65
2022/04/28 08:34:52;;;;;;;;;;;;;;;-142.75;100.00;78190.69;5048206;28;20116;-65
2022/04/28 08:37:18;;;;;;;6.78;2.38;;;;;;;-142.75;100.00;78137.50;5049783;28;19927;-65
2022/04/28 08:39:43;;;;;;;;;;;;;;;-142.75;100.00;78172.94;5049703;28;20522;-66
2022/04/28 08:42:12;;;;;;;10.93;3.35;;;;;;;-142.75;100.00;78247.78;5042503;28;19924;-66
2022/04/28 08:44:37;;;;;;;6.45;3.00;;;;;;;-142.75;100.00;78172.94;5028404;28;20044;-66
2022/04/28 08:47:03;;;;;;;7.22;2.90;;;;;;;-142.75;100.00;78113.88;5029975;28;20397;-66
2022/04/28 08:49:31;;;;;;;8.15;2.85;;;;;;;-142.75;100.00;78167.03;5039204;28;20036;-67
2022/04/28 08:51:58;;;;;;;7.25;2.60;;;;;;;-142.75;100.00;78196.59;5049727;28;20024;-65
2022/04/28 08:54:25;;;;;;;6.55;3.10;;;;;;;-142.75;100.00;78182.81;5049241;28;20035;-67
2022/04/28 08:56:52;;;;;;;7.32;2.67;;;;;;;-142.75;99.60;78143.41;5049594;28;20485;-67
2022/04/28 08:59:19;;;;;;;9.02;3.08;;;;;;;-142.75;94.70;78125.69;5049393;28;20033;-66
2022/04/28 09:01:45;;;;;;;12.23;3.10;;;;;;;-142.75;97.98;78115.84;5049537;28;20036;-66
2022/04/28 09:04:11;;;;;;;7.68;2.72;;;;;;;-142.75;94.07;78109.94;5046037;28;20037;-66
2022/04/28 09:06:37;;;;;;;;;;;;;;;-142.75;95.38;78113.88;5029661;28;20167;-66
2022/04/28 09:09:21;;;;;;;7.85;2.42;;;;;;;-142.75;96.42;78092.22;5029551;28;20362;-66
2022/04/28 09:11:47;;;;;;;7.15;2.40;;;;;;;-142.75;97.46;78046.91;5029501;28;20026;-67
2022/04/28 09:14:15;;;;;;;9.73;2.40;;;;;;;-142.75;92.38;78027.22;5046557;28;20025;-67
2022/04/28 09:16:46;;;;;;;6.55;2.20;;;;;;;-142.75;87.73;78027.22;5049447;28;20041;-66
2022/04/28 09:19:25;;;;;;;7.70;2.58;;;;;;;-142.75;89.11;78011.47;5049528;28;20032;-67
2022/04/28 09:21:53;;;;;;;8.48;2.92;;;;;;;-142.75;95.68;77991.78;5049237;28;20397;-66
2022/04/28 09:24:19;;;;;;;8.32;3.22;;;;;;;-142.75;93.78;77995.72;5048981;28;20083;-66
2022/04/28 09:26:46;;;;;;;11.02;3.05;;;;;;;-142.75;95.33;77944.53;5049309;28;20032;-66
2022/04/28 09:29:16;;;;;;;5.90;2.90;;;;;;;-142.75;90.51;77924.84;5049229;28;20097;-66
2022/04/28 09:31:44;;;;;;;9.07;2.78;;;;;;;-142.75;86.49;77964.22;5049181;28;20029;-66
2022/04/28 09:34:14;;;;;;;6.25;3.00;;;;;;;-142.75;86.43;77950.44;5049437;28;20503;-67
2022/04/28 09:36:41;;;;;;;9.25;3.65;;;;;;;-142.75;87.52;77948.47;5049909;28;20040;-66
2022/04/28 09:39:08;;;;;;;9.13;3.05;;;;;;;-142.75;86.61;77932.72;5052974;28;20037;-66
2022/04/28 09:44:20;;;;;;;7.75;3.20;;;;;;;-142.75;79.93;77881.50;5053081;28;20040;-67
2022/04/28 09:46:46;;;;;;;7.68;2.80;;;;;;;-142.75;77.74;77909.06;5052730;28;20034;-66
2022/04/28 09:49:13;;;;;;;6.72;2.50;;;;;;;-142.75;79.29;77940.59;5052886;28;20431;-67
2022/04/28 09:51:40;;;;;;;4.72;2.67;;;;;;;-142.75;83.48;77956.34;5052227;28;20063;-67
2022/04/28 09:54:09;;;;;;;10.30;3.03;;;;;;;-142.75;80.75;77905.13;5052348;28;20033;-66
2022/04/28 09:56:36;;;;;;;6.30;2.78;;;;;;;-142.75;81.57;77889.38;5052729;28;20504;-67
2022/04/28 09:59:05;;;;;;;4.40;2.20;;;;;;;-142.75;79.71;77899.22;5051399;28;20025;-67
2022/04/28 10:01:31;;;;;;;10.35;2.78;;;;;;;-142.75;75.85;77901.19;5052177;28;20486;-66
2022/04/28 10:03:57;;;;;;;6.68;2.67;;;;;;;-142.75;75.39;77844.09;5052531;28;20406;-67
2022/04/28 10:06:24;;;;;;;;;;;;;;;-142.75;74.99;77828.34;5051101;28;20028;-67
2022/04/28 10:08:51;;;;;;;7.63;2.95;;;;;;;-142.75;76.88;77812.59;5050573;28;19913;-66
2022/04/28 10:11:20;;;;;;;7.53;2.67;;;;;;;-142.75;78.50;77861.81;5052069;28;20482;-66
2022/04/28 10:13:47;;;;;;;7.03;2.78;;;;;;;-142.75;79.73;77893.31;5052665;28;20040;-67
2022/04/28 10:16:13;;;;;;;;;;;;;;;-142.75;75.72;77883.47;5052665;28;20482;-67
2022/04/28 10:18:44;;;;;;;10.43;2.67;;;;;;;-142.75;79.01;77840.16;5051086;28;19912;-66
2022/04/28 10:21:14;;;;;;;5.88;2.40;;;;;;;-142.75;72.65;77877.56;5051712;28;20029;-67
2022/04/28 10:35:07;;;;;;;5.90;2.80;;;;;;;-142.75;76.77;77865.75;5031609;28;20043;-68
2022/04/28 10:37:40;;;;;;;10.07;3.20;;;;;;;-142.75;73.97;77818.50;5032558;28;20495;-68
2022/04/28 10:40:11;;;;;;;7.88;3.20;;;;;;;-142.75;74.16;77810.63;5032649;28;20025;-68
2022/04/28 10:42:36;;;;;;;6.13;2.78;;;;;;;-142.75;73.48;77842.13;5032833;28;20160;-67
2022/04/28 10:45:05;;;;;;;;;;;;;;;-142.75;71.55;77804.72;5031980;28;20116;-67
2022/04/28 10:47:33;;;;;;;7.05;2.88;;;;;;;-142.75;74.69;77761.41;5032748;28;19913;-68
2022/04/28 10:49:59;;;;;;;7.10;3.35;;;;;;;-142.75;68.24;77798.81;5031392;28;20573;-67
2022/04/28 10:52:25;;;;;;;;;;;;;;;-142.75;71.92;77806.69;5031746;28;20116;-67
2022/04/28 10:54:53;;;;;;;5.47;2.92;;;;;;;-142.75;74.74;77826.38;5032661;28;19917;-67
2022/04/28 10:57:28;;;;;;;7.78;3.15;;;;;;;-142.75;73.96;77790.94;5032517;28;20541;-68
2022/04/28 10:59:54;;;;;;;6.50;3.50;;;;;;;-142.75;70.18;77818.50;5023777;28;20443;-64
2022/04/28 11:02:19;;;;;;;;;;;;;;;-142.75;69.33;77810.63;5028882;28;20036;-67
2022/04/28 11:10:01;;;;;;;10.45;3.25;;;;;;;-142.75;66.11;77743.69;5166597;22;20220;-66
2022/04/28 11:12:36;;;;;;;9.65;3.20;;;;;;;-142.75;66.02;77716.09;5009374;28;20136;-69
2022/04/28 11:15:06;;;;;;;7.10;3.30;;;;;;;-142.75;66.93;77757.47;5011823;28;20391;-66
2022/04/28 11:17:36;;;;;;;5.13;3.03;;;;;;;-142.75;66.81;77737.78;5012026;28;20025;-66
2022/04/28 11:20:07;;;;;;;11.13;3.63;;;;;;;-142.75;65.93;77739.75;5011602;28;20030;-65
2022/04/28 11:22:34;;;;;;;11.25;3.83;;;;;;;-142.75;70.08;77700.34;5012019;28;20030;-66
2022/04/28 11:25:08;;;;;;;11.80;3.15;;;;;;;-142.75;69.52;77662.94;5012263;28;20037;-66
2022/04/28 11:27:34;;;;;;;11.38;3.80;;;;;;;-142.75;68.75;77629.47;5011867;28;20033;-66
2022/04/28 11:29:59;;;;;;;8.55;3.20;;;;;;;-142.75;66.38;77641.28;5011843;28;20022;-65
2022/04/28 11:32:25;;;;;;;9.35;3.42;;;;;;;-142.75;65.90;77660.97;5011838;28;20053;-66
2022/04/28 11:34:52;;;;;;;;;;;;;;;-142.75;66.37;77708.22;5012583;28;20096;-66
2022/04/28 11:37:22;;;;;;;6.95;2.92;;;;;;;-142.75;63.65;77716.09;5012068;28;19917;-66
2022/04/28 11:39:50;;;;;;;6.60;3.30;;;;;;;-142.75;63.92;77714.13;5010377;28;20368;-65
2022/04/28 11:42:16;;;;;;;10.75;3.00;;;;;;;-142.75;65.02;77668.84;5012002;28;20056;-66